Zhetygen Airport

Jump to: basic info | weather | comments

Related pages: nearby airports | nearby navaids

Basic information (top)

Location: lon 43.733101, lat 77.119400, elev 1,638 ft / 499 m msl
Status: small_airport

Weather (top)

Current conditions for Almaty Airport 23nm (43km) S (rec'd 2014/09/24 00:00Z):

UAAA 240000Z 27003MPS 9999 FEW050CB BKN100 11/06 Q1011 R88/65D TEMPO TS

Airport forecast for Almaty Airport 23nm (43km) S (rec'd 2014/09/23 00:18Z):

TAF TAF UAAA 232300Z 2400/2424 04006MPS 9999 SCT050CB BKN100 TX23/2408Z TN10/2401Z 
      TEMPO 2400/2406 TS 
      TEMPO 2406/2424 TSRA

Latest comments (top)

No comments yet for Zhetygen Airport

More... (top)

See also NOTAMs and nearby airports and navaids, or visit the Zhetygen Airport page at the main OurAirports website..